Manitowaning, Canada
Current Conditions -  °F | °C
As of 5:00 PM on Tuesday 25 Nov 2014 (Local Time) from CYZE Reporting Station
Broken Clouds Broken Clouds  
Wind Chill: 17°   Ceiling: 2900
Heat Index: 27°   Visibility: 9mi
Dew Point: 23°   Wind: 10mph
Humidity: 86%   Direction: 300°WNW
Pressure: 29.95"   Gusts: NA
Location:  45.73°N, 81.8°W
Report Text: CYZE 252200Z AUTO 30009KT 9SM FEW016 SCT023 BKN029 BKN036 M03/M05 A2995 RMK ICG SLP152
Loading
Personal Weather Stations






























Interactive Weather Map New forecast layout! Learn more

10-Day Weather Forecast

Advertisements
Track Severe Weather on mobile